sensor_id;sensor_type;location;lat;lon;timestamp;temperature;humidity
80234;DHT22;69712;42.142;24.766;2024-03-02T00:00:14;10.10;82.70
80234;DHT22;69712;42.142;24.766;2024-03-02T00:02:44;9.80;82.60
80234;DHT22;69712;42.142;24.766;2024-03-02T00:05:14;9.80;83.10
80234;DHT22;69712;42.142;24.766;2024-03-02T00:07:45;9.80;82.80
80234;DHT22;69712;42.142;24.766;2024-03-02T00:10:14;9.60;83.40
80234;DHT22;69712;42.142;24.766;2024-03-02T00:12:42;9.70;83.30
80234;DHT22;69712;42.142;24.766;2024-03-02T00:15:27;9.70;83.40
80234;DHT22;69712;42.142;24.766;2024-03-02T00:17:57;9.50;84.10
80234;DHT22;69712;42.142;24.766;2024-03-02T00:20:24;9.50;84.50
80234;DHT22;69712;42.142;24.766;2024-03-02T00:23:02;9.60;84.60
80234;DHT22;69712;42.142;24.766;2024-03-02T00:28:18;9.70;83.40
80234;DHT22;69712;42.142;24.766;2024-03-02T00:30:58;9.80;83.00
80234;DHT22;69712;42.142;24.766;2024-03-02T00:33:34;9.80;82.90
80234;DHT22;69712;42.142;24.766;2024-03-02T00:36:02;9.80;82.60
80234;DHT22;69712;42.142;24.766;2024-03-02T00:38:32;9.90;82.40
80234;DHT22;69712;42.142;24.766;2024-03-02T00:41:03;9.80;82.10
80234;DHT22;69712;42.142;24.766;2024-03-02T00:46:08;9.70;82.80
80234;DHT22;69712;42.142;24.766;2024-03-02T00:48:33;9.60;83.30
80234;DHT22;69712;42.142;24.766;2024-03-02T00:51:03;9.80;82.50
80234;DHT22;69712;42.142;24.766;2024-03-02T00:53:32;9.90;81.50
80234;DHT22;69712;42.142;24.766;2024-03-02T00:55:59;9.90;81.00
80234;DHT22;69712;42.142;24.766;2024-03-02T00:58:26;9.80;81.80
80234;DHT22;69712;42.142;24.766;2024-03-02T01:00:52;9.50;83.40
80234;DHT22;69712;42.142;24.766;2024-03-02T01:03:18;9.60;83.40
80234;DHT22;69712;42.142;24.766;2024-03-02T01:05:45;9.50;83.30
80234;DHT22;69712;42.142;24.766;2024-03-02T01:08:11;9.40;84.20
80234;DHT22;69712;42.142;24.766;2024-03-02T01:10:37;9.40;84.80
80234;DHT22;69712;42.142;24.766;2024-03-02T01:13:02;9.40;84.40
80234;DHT22;69712;42.142;24.766;2024-03-02T01:15:28;9.40;84.40
80234;DHT22;69712;42.142;24.766;2024-03-02T01:17:54;9.40;84.40
80234;DHT22;69712;42.142;24.766;2024-03-02T01:20:20;9.40;84.50
80234;DHT22;69712;42.142;24.766;2024-03-02T01:22:46;9.40;84.60
80234;DHT22;69712;42.142;24.766;2024-03-02T01:25:12;9.00;87.20
80234;DHT22;69712;42.142;24.766;2024-03-02T01:27:39;8.90;88.10
80234;DHT22;69712;42.142;24.766;2024-03-02T01:30:05;8.90;88.30
80234;DHT22;69712;42.142;24.766;2024-03-02T01:32:31;8.90;88.20
80234;DHT22;69712;42.142;24.766;2024-03-02T01:34:57;8.90;88.00
80234;DHT22;69712;42.142;24.766;2024-03-02T01:37:23;9.00;87.70
80234;DHT22;69712;42.142;24.766;2024-03-02T01:39:49;8.90;89.00
80234;DHT22;69712;42.142;24.766;2024-03-02T01:42:15;8.80;89.10
80234;DHT22;69712;42.142;24.766;2024-03-02T01:44:41;8.60;90.30
80234;DHT22;69712;42.142;24.766;2024-03-02T01:47:06;8.80;90.10
80234;DHT22;69712;42.142;24.766;2024-03-02T01:49:32;8.70;90.00
80234;DHT22;69712;42.142;24.766;2024-03-02T01:51:59;8.70;90.00
80234;DHT22;69712;42.142;24.766;2024-03-02T01:54:25;8.80;90.10
80234;DHT22;69712;42.142;24.766;2024-03-02T01:56:51;8.80;89.90
80234;DHT22;69712;42.142;24.766;2024-03-02T01:59:17;8.80;90.00
80234;DHT22;69712;42.142;24.766;2024-03-02T02:01:43;8.80;89.80
80234;DHT22;69712;42.142;24.766;2024-03-02T02:04:09;8.90;89.80
80234;DHT22;69712;42.142;24.766;2024-03-02T02:06:35;8.80;89.70
80234;DHT22;69712;42.142;24.766;2024-03-02T02:09:00;8.80;90.20
80234;DHT22;69712;42.142;24.766;2024-03-02T02:11:26;8.80;90.20
80234;DHT22;69712;42.142;24.766;2024-03-02T02:13:52;8.90;89.70
80234;DHT22;69712;42.142;24.766;2024-03-02T02:16:21;8.80;90.00
80234;DHT22;69712;42.142;24.766;2024-03-02T02:18:47;8.90;89.70
80234;DHT22;69712;42.142;24.766;2024-03-02T02:21:13;8.80;89.90
80234;DHT22;69712;42.142;24.766;2024-03-02T02:23:38;8.70;90.20
80234;DHT22;69712;42.142;24.766;2024-03-02T02:26:04;8.70;90.50
80234;DHT22;69712;42.142;24.766;2024-03-02T02:28:30;8.70;90.20
80234;DHT22;69712;42.142;24.766;2024-03-02T02:30:56;8.60;90.50
80234;DHT22;69712;42.142;24.766;2024-03-02T02:33:22;8.70;90.50
80234;DHT22;69712;42.142;24.766;2024-03-02T02:35:48;8.80;90.40
80234;DHT22;69712;42.142;24.766;2024-03-02T02:38:14;8.80;90.30
80234;DHT22;69712;42.142;24.766;2024-03-02T02:40:39;8.80;90.30
80234;DHT22;69712;42.142;24.766;2024-03-02T02:43:05;8.70;90.70
80234;DHT22;69712;42.142;24.766;2024-03-02T02:45:32;8.90;90.40
80234;DHT22;69712;42.142;24.766;2024-03-02T02:47:58;8.80;90.40
80234;DHT22;69712;42.142;24.766;2024-03-02T02:50:23;8.90;90.20
80234;DHT22;69712;42.142;24.766;2024-03-02T02:52:49;8.90;89.50
80234;DHT22;69712;42.142;24.766;2024-03-02T02:55:15;9.00;89.80
80234;DHT22;69712;42.142;24.766;2024-03-02T02:57:42;9.10;89.60
80234;DHT22;69712;42.142;24.766;2024-03-02T03:00:21;8.90;90.00
80234;DHT22;69712;42.142;24.766;2024-03-02T03:02:51;8.90;90.00
80234;DHT22;69712;42.142;24.766;2024-03-02T03:05:17;8.90;90.20
80234;DHT22;69712;42.142;24.766;2024-03-02T03:07:44;8.80;90.60
80234;DHT22;69712;42.142;24.766;2024-03-02T03:10:10;8.90;90.40
80234;DHT22;69712;42.142;24.766;2024-03-02T03:12:36;9.00;90.10
80234;DHT22;69712;42.142;24.766;2024-03-02T03:15:11;8.90;90.30
80234;DHT22;69712;42.142;24.766;2024-03-02T03:17:37;8.80;90.60
80234;DHT22;69712;42.142;24.766;2024-03-02T03:20:04;8.70;91.00
80234;DHT22;69712;42.142;24.766;2024-03-02T03:22:31;8.60;91.40
80234;DHT22;69712;42.142;24.766;2024-03-02T03:25:00;8.60;91.70
80234;DHT22;69712;42.142;24.766;2024-03-02T03:27:26;8.70;91.40
80234;DHT22;69712;42.142;24.766;2024-03-02T03:29:52;8.80;91.30
80234;DHT22;69712;42.142;24.766;2024-03-02T03:32:18;8.80;90.80
80234;DHT22;69712;42.142;24.766;2024-03-02T03:34:43;8.70;91.10
80234;DHT22;69712;42.142;24.766;2024-03-02T03:37:09;8.70;91.30
80234;DHT22;69712;42.142;24.766;2024-03-02T03:39:35;8.70;90.80
80234;DHT22;69712;42.142;24.766;2024-03-02T03:42:01;8.80;90.70
80234;DHT22;69712;42.142;24.766;2024-03-02T03:44:27;8.70;91.20
80234;DHT22;69712;42.142;24.766;2024-03-02T03:46:53;8.90;90.50
80234;DHT22;69712;42.142;24.766;2024-03-02T03:49:18;8.80;90.60
80234;DHT22;69712;42.142;24.766;2024-03-02T03:51:44;8.60;91.50
80234;DHT22;69712;42.142;24.766;2024-03-02T03:54:10;8.50;91.70
80234;DHT22;69712;42.142;24.766;2024-03-02T03:56:37;8.40;91.80
80234;DHT22;69712;42.142;24.766;2024-03-02T03:59:03;8.60;91.70
80234;DHT22;69712;42.142;24.766;2024-03-02T04:01:30;8.70;91.10
80234;DHT22;69712;42.142;24.766;2024-03-02T04:03:57;8.80;90.90
80234;DHT22;69712;42.142;24.766;2024-03-02T04:06:23;8.90;90.50
80234;DHT22;69712;42.142;24.766;2024-03-02T04:08:49;8.70;90.80
80234;DHT22;69712;42.142;24.766;2024-03-02T04:11:16;8.50;91.70
80234;DHT22;69712;42.142;24.766;2024-03-02T04:13:42;8.50;91.90
80234;DHT22;69712;42.142;24.766;2024-03-02T04:16:07;8.60;91.50
80234;DHT22;69712;42.142;24.766;2024-03-02T04:18:33;8.60;91.60
80234;DHT22;69712;42.142;24.766;2024-03-02T04:20:59;8.70;91.30
80234;DHT22;69712;42.142;24.766;2024-03-02T04:23:26;8.80;91.00
80234;DHT22;69712;42.142;24.766;2024-03-02T04:25:51;8.80;90.80
80234;DHT22;69712;42.142;24.766;2024-03-02T04:28:17;8.90;90.70
80234;DHT22;69712;42.142;24.766;2024-03-02T04:30:43;8.70;90.80
80234;DHT22;69712;42.142;24.766;2024-03-02T04:33:09;8.60;91.40
80234;DHT22;69712;42.142;24.766;2024-03-02T04:35:36;8.20;93.00
80234;DHT22;69712;42.142;24.766;2024-03-02T04:38:02;8.10;93.70
80234;DHT22;69712;42.142;24.766;2024-03-02T04:40:28;8.00;94.30
80234;DHT22;69712;42.142;24.766;2024-03-02T04:42:54;8.00;94.50
80234;DHT22;69712;42.142;24.766;2024-03-02T04:45:19;8.10;94.60
80234;DHT22;69712;42.142;24.766;2024-03-02T04:47:45;8.10;94.20
80234;DHT22;69712;42.142;24.766;2024-03-02T04:50:11;8.20;94.10
80234;DHT22;69712;42.142;24.766;2024-03-02T04:52:37;8.10;93.80
80234;DHT22;69712;42.142;24.766;2024-03-02T04:55:03;8.30;93.80
80234;DHT22;69712;42.142;24.766;2024-03-02T04:57:35;8.30;93.00
80234;DHT22;69712;42.142;24.766;2024-03-02T05:00:01;8.50;92.90
80234;DHT22;69712;42.142;24.766;2024-03-02T05:02:27;8.50;92.50
80234;DHT22;69712;42.142;24.766;2024-03-02T05:04:53;8.60;92.90
80234;DHT22;69712;42.142;24.766;2024-03-02T05:07:18;8.80;92.00
80234;DHT22;69712;42.142;24.766;2024-03-02T05:09:44;8.70;91.70
80234;DHT22;69712;42.142;24.766;2024-03-02T05:12:10;8.70;91.80
80234;DHT22;69712;42.142;24.766;2024-03-02T05:14:45;8.90;91.30
80234;DHT22;69712;42.142;24.766;2024-03-02T05:17:11;9.10;90.60
80234;DHT22;69712;42.142;24.766;2024-03-02T05:19:37;8.80;91.40
80234;DHT22;69712;42.142;24.766;2024-03-02T05:22:03;8.70;91.50
80234;DHT22;69712;42.142;24.766;2024-03-02T05:24:30;8.70;91.70
80234;DHT22;69712;42.142;24.766;2024-03-02T05:26:55;8.60;92.10
80234;DHT22;69712;42.142;24.766;2024-03-02T05:29:38;8.70;92.20
80234;DHT22;69712;42.142;24.766;2024-03-02T05:32:04;8.80;92.30
80234;DHT22;69712;42.142;24.766;2024-03-02T05:34:30;8.90;91.20
80234;DHT22;69712;42.142;24.766;2024-03-02T05:36:56;8.90;91.10
80234;DHT22;69712;42.142;24.766;2024-03-02T05:39:23;8.80;91.40
80234;DHT22;69712;42.142;24.766;2024-03-02T05:41:49;8.80;91.40
80234;DHT22;69712;42.142;24.766;2024-03-02T05:44:14;8.70;91.60
80234;DHT22;69712;42.142;24.766;2024-03-02T05:46:41;8.70;91.70
80234;DHT22;69712;42.142;24.766;2024-03-02T05:49:07;8.40;92.50
80234;DHT22;69712;42.142;24.766;2024-03-02T05:51:36;8.50;92.60
80234;DHT22;69712;42.142;24.766;2024-03-02T05:54:02;8.70;91.90
80234;DHT22;69712;42.142;24.766;2024-03-02T05:56:28;8.80;91.50
80234;DHT22;69712;42.142;24.766;2024-03-02T05:58:54;8.80;91.30
80234;DHT22;69712;42.142;24.766;2024-03-02T06:01:45;8.70;91.60
80234;DHT22;69712;42.142;24.766;2024-03-02T06:04:12;8.80;91.70
80234;DHT22;69712;42.142;24.766;2024-03-02T06:06:38;9.00;91.20
80234;DHT22;69712;42.142;24.766;2024-03-02T06:09:05;9.00;90.70
80234;DHT22;69712;42.142;24.766;2024-03-02T06:11:33;9.20;90.40
80234;DHT22;69712;42.142;24.766;2024-03-02T06:13:59;9.20;90.10
80234;DHT22;69712;42.142;24.766;2024-03-02T06:16:25;9.20;90.20
80234;DHT22;69712;42.142;24.766;2024-03-02T06:18:51;9.20;90.50
80234;DHT22;69712;42.142;24.766;2024-03-02T06:21:17;9.30;90.30
80234;DHT22;69712;42.142;24.766;2024-03-02T06:23:44;9.30;90.30
80234;DHT22;69712;42.142;24.766;2024-03-02T06:26:09;9.20;90.30
80234;DHT22;69712;42.142;24.766;2024-03-02T06:28:35;9.20;90.30
80234;DHT22;69712;42.142;24.766;2024-03-02T06:31:02;9.00;90.60
80234;DHT22;69712;42.142;24.766;2024-03-02T06:33:27;9.10;90.90
80234;DHT22;69712;42.142;24.766;2024-03-02T06:35:54;9.20;90.80
80234;DHT22;69712;42.142;24.766;2024-03-02T06:38:20;9.30;90.70
80234;DHT22;69712;42.142;24.766;2024-03-02T06:40:45;9.40;90.10
80234;DHT22;69712;42.142;24.766;2024-03-02T06:43:11;9.60;90.10
80234;DHT22;69712;42.142;24.766;2024-03-02T06:45:37;9.80;88.50
80234;DHT22;69712;42.142;24.766;2024-03-02T06:48:03;10.00;87.50
80234;DHT22;69712;42.142;24.766;2024-03-02T06:50:29;10.10;86.70
80234;DHT22;69712;42.142;24.766;2024-03-02T06:52:55;10.10;86.20
80234;DHT22;69712;42.142;24.766;2024-03-02T06:55:21;10.00;86.60
80234;DHT22;69712;42.142;24.766;2024-03-02T06:57:47;9.90;86.60
80234;DHT22;69712;42.142;24.766;2024-03-02T07:00:13;9.60;88.00
80234;DHT22;69712;42.142;24.766;2024-03-02T07:02:39;9.50;88.70
80234;DHT22;69712;42.142;24.766;2024-03-02T07:05:08;9.30;90.20
80234;DHT22;69712;42.142;24.766;2024-03-02T07:07:34;9.10;90.90
80234;DHT22;69712;42.142;24.766;2024-03-02T07:10:01;9.00;91.10
80234;DHT22;69712;42.142;24.766;2024-03-02T07:12:27;9.10;91.20
80234;DHT22;69712;42.142;24.766;2024-03-02T07:14:52;9.10;91.20
80234;DHT22;69712;42.142;24.766;2024-03-02T07:17:37;9.30;91.10
80234;DHT22;69712;42.142;24.766;2024-03-02T07:20:03;9.60;90.10
80234;DHT22;69712;42.142;24.766;2024-03-02T07:22:32;9.70;88.10
80234;DHT22;69712;42.142;24.766;2024-03-02T07:24:58;9.60;89.50
80234;DHT22;69712;42.142;24.766;2024-03-02T07:27:24;9.60;89.30
80234;DHT22;69712;42.142;24.766;2024-03-02T07:29:50;9.50;89.10
80234;DHT22;69712;42.142;24.766;2024-03-02T07:32:16;9.60;89.70
80234;DHT22;69712;42.142;24.766;2024-03-02T07:34:41;9.60;88.70
80234;DHT22;69712;42.142;24.766;2024-03-02T07:37:07;9.40;89.40
80234;DHT22;69712;42.142;24.766;2024-03-02T07:39:33;9.20;90.70
80234;DHT22;69712;42.142;24.766;2024-03-02T07:41:59;9.20;91.00
80234;DHT22;69712;42.142;24.766;2024-03-02T07:44:26;9.30;90.30
80234;DHT22;69712;42.142;24.766;2024-03-02T07:46:51;9.50;90.40
80234;DHT22;69712;42.142;24.766;2024-03-02T07:49:18;9.60;90.10
80234;DHT22;69712;42.142;24.766;2024-03-02T07:51:44;9.80;89.40
80234;DHT22;69712;42.142;24.766;2024-03-02T07:54:10;10.00;88.40
80234;DHT22;69712;42.142;24.766;2024-03-02T07:56:36;10.30;87.50
80234;DHT22;69712;42.142;24.766;2024-03-02T07:59:03;10.60;85.50
80234;DHT22;69712;42.142;24.766;2024-03-02T08:01:29;10.60;84.80
80234;DHT22;69712;42.142;24.766;2024-03-02T08:04:00;10.60;83.60
80234;DHT22;69712;42.142;24.766;2024-03-02T08:06:27;10.70;83.20
80234;DHT22;69712;42.142;24.766;2024-03-02T08:09:00;10.60;84.60
80234;DHT22;69712;42.142;24.766;2024-03-02T08:11:26;10.60;84.20
80234;DHT22;69712;42.142;24.766;2024-03-02T08:13:56;10.40;85.30
80234;DHT22;69712;42.142;24.766;2024-03-02T08:16:23;10.60;85.10
80234;DHT22;69712;42.142;24.766;2024-03-02T08:18:49;10.60;83.90
80234;DHT22;69712;42.142;24.766;2024-03-02T08:21:15;10.80;83.90
80234;DHT22;69712;42.142;24.766;2024-03-02T08:23:42;10.80;84.00
80234;DHT22;69712;42.142;24.766;2024-03-02T08:26:11;10.90;83.30
80234;DHT22;69712;42.142;24.766;2024-03-02T08:28:37;11.00;82.00
80234;DHT22;69712;42.142;24.766;2024-03-02T08:31:06;11.20;81.40
80234;DHT22;69712;42.142;24.766;2024-03-02T08:33:32;11.20;82.20
80234;DHT22;69712;42.142;24.766;2024-03-02T08:35:58;11.10;81.40
80234;DHT22;69712;42.142;24.766;2024-03-02T08:38:24;11.00;82.60
80234;DHT22;69712;42.142;24.766;2024-03-02T08:40:50;11.10;82.70
80234;DHT22;69712;42.142;24.766;2024-03-02T08:43:17;10.80;82.70
80234;DHT22;69712;42.142;24.766;2024-03-02T08:45:43;10.60;83.90
80234;DHT22;69712;42.142;24.766;2024-03-02T08:48:09;10.40;84.50
80234;DHT22;69712;42.142;24.766;2024-03-02T08:50:37;10.30;85.50
80234;DHT22;69712;42.142;24.766;2024-03-02T08:53:03;10.40;84.80
80234;DHT22;69712;42.142;24.766;2024-03-02T08:55:30;10.60;83.70
80234;DHT22;69712;42.142;24.766;2024-03-02T08:57:56;10.80;83.40
80234;DHT22;69712;42.142;24.766;2024-03-02T09:00:22;11.10;82.50
80234;DHT22;69712;42.142;24.766;2024-03-02T09:02:47;11.10;81.10
80234;DHT22;69712;42.142;24.766;2024-03-02T09:05:13;11.20;81.30
80234;DHT22;69712;42.142;24.766;2024-03-02T09:07:39;11.20;80.30
80234;DHT22;69712;42.142;24.766;2024-03-02T09:10:08;11.20;79.90
80234;DHT22;69712;42.142;24.766;2024-03-02T09:12:34;11.00;81.40
80234;DHT22;69712;42.142;24.766;2024-03-02T09:15:01;10.80;82.50
80234;DHT22;69712;42.142;24.766;2024-03-02T09:17:27;10.80;84.00
80234;DHT22;69712;42.142;24.766;2024-03-02T09:19:53;11.00;82.60
80234;DHT22;69712;42.142;24.766;2024-03-02T09:22:19;11.20;81.10
80234;DHT22;69712;42.142;24.766;2024-03-02T09:24:45;11.10;81.50
80234;DHT22;69712;42.142;24.766;2024-03-02T09:27:10;11.10;81.00
80234;DHT22;69712;42.142;24.766;2024-03-02T09:29:37;11.10;82.10
80234;DHT22;69712;42.142;24.766;2024-03-02T09:32:03;10.90;82.90
80234;DHT22;69712;42.142;24.766;2024-03-02T09:34:29;10.90;82.50
80234;DHT22;69712;42.142;24.766;2024-03-02T09:36:55;10.90;81.70
80234;DHT22;69712;42.142;24.766;2024-03-02T09:39:21;11.10;81.60
80234;DHT22;69712;42.142;24.766;2024-03-02T09:41:48;11.20;81.00
80234;DHT22;69712;42.142;24.766;2024-03-02T09:44:14;11.30;79.90
80234;DHT22;69712;42.142;24.766;2024-03-02T09:46:40;10.70;81.70
80234;DHT22;69712;42.142;24.766;2024-03-02T09:49:06;10.70;81.90
80234;DHT22;69712;42.142;24.766;2024-03-02T09:51:32;10.80;83.10
80234;DHT22;69712;42.142;24.766;2024-03-02T09:53:57;10.90;83.40
80234;DHT22;69712;42.142;24.766;2024-03-02T09:56:26;11.20;82.00
80234;DHT22;69712;42.142;24.766;2024-03-02T09:58:52;10.80;83.50
80234;DHT22;69712;42.142;24.766;2024-03-02T10:01:17;10.50;84.60
80234;DHT22;69712;42.142;24.766;2024-03-02T10:03:44;10.50;83.90
80234;DHT22;69712;42.142;24.766;2024-03-02T10:06:22;10.90;84.50
80234;DHT22;69712;42.142;24.766;2024-03-02T10:08:49;11.10;81.50
80234;DHT22;69712;42.142;24.766;2024-03-02T10:11:32;11.10;83.10
80234;DHT22;69712;42.142;24.766;2024-03-02T10:14:05;10.70;83.60
80234;DHT22;69712;42.142;24.766;2024-03-02T10:16:40;10.80;83.40
80234;DHT22;69712;42.142;24.766;2024-03-02T10:19:20;11.10;82.70
80234;DHT22;69712;42.142;24.766;2024-03-02T10:21:50;11.00;83.50
80234;DHT22;69712;42.142;24.766;2024-03-02T10:24:20;11.00;82.10
80234;DHT22;69712;42.142;24.766;2024-03-02T10:26:46;10.80;83.40
80234;DHT22;69712;42.142;24.766;2024-03-02T10:29:12;11.20;82.90
80234;DHT22;69712;42.142;24.766;2024-03-02T10:31:41;11.20;81.60
80234;DHT22;69712;42.142;24.766;2024-03-02T10:34:10;11.20;81.40
80234;DHT22;69712;42.142;24.766;2024-03-02T10:36:37;11.20;80.60
80234;DHT22;69712;42.142;24.766;2024-03-02T10:39:04;11.20;82.00
80234;DHT22;69712;42.142;24.766;2024-03-02T10:41:35;11.10;81.70
80234;DHT22;69712;42.142;24.766;2024-03-02T10:44:05;11.20;81.40
80234;DHT22;69712;42.142;24.766;2024-03-02T10:46:33;11.50;81.40
80234;DHT22;69712;42.142;24.766;2024-03-02T10:49:00;11.60;81.10
80234;DHT22;69712;42.142;24.766;2024-03-02T10:51:29;11.90;79.20
80234;DHT22;69712;42.142;24.766;2024-03-02T10:53:57;12.30;78.20
80234;DHT22;69712;42.142;24.766;2024-03-02T10:56:32;12.20;76.30
80234;DHT22;69712;42.142;24.766;2024-03-02T10:59:03;12.30;77.40
80234;DHT22;69712;42.142;24.766;2024-03-02T11:01:32;11.90;77.80
80234;DHT22;69712;42.142;24.766;2024-03-02T11:04:02;11.80;79.00
80234;DHT22;69712;42.142;24.766;2024-03-02T11:06:30;11.90;79.10
80234;DHT22;69712;42.142;24.766;2024-03-02T11:09:00;12.00;78.30
80234;DHT22;69712;42.142;24.766;2024-03-02T11:11:32;12.10;77.70
80234;DHT22;69712;42.142;24.766;2024-03-02T11:14:01;11.90;78.70
80234;DHT22;69712;42.142;24.766;2024-03-02T11:16:34;11.90;79.60
80234;DHT22;69712;42.142;24.766;2024-03-02T11:19:06;12.10;78.60
80234;DHT22;69712;42.142;24.766;2024-03-02T11:21:36;12.40;77.90
80234;DHT22;69712;42.142;24.766;2024-03-02T11:26:47;12.40;76.60
80234;DHT22;69712;42.142;24.766;2024-03-02T11:32:04;12.30;76.80
80234;DHT22;69712;42.142;24.766;2024-03-02T11:34:31;12.30;77.00
80234;DHT22;69712;42.142;24.766;2024-03-02T11:37:03;12.30;76.90
80234;DHT22;69712;42.142;24.766;2024-03-02T11:39:30;12.30;76.90
80234;DHT22;69712;42.142;24.766;2024-03-02T11:41:59;12.30;76.70
80234;DHT22;69712;42.142;24.766;2024-03-02T11:44:28;12.50;76.80
80234;DHT22;69712;42.142;24.766;2024-03-02T11:47:02;12.60;76.30
80234;DHT22;69712;42.142;24.766;2024-03-02T11:49:38;12.80;75.40
80234;DHT22;69712;42.142;24.766;2024-03-02T11:52:08;12.90;74.70
80234;DHT22;69712;42.142;24.766;2024-03-02T11:54:38;13.00;74.00
80234;DHT22;69712;42.142;24.766;2024-03-02T11:57:12;12.80;75.70
80234;DHT22;69712;42.142;24.766;2024-03-02T11:59:39;12.80;76.50
80234;DHT22;69712;42.142;24.766;2024-03-02T12:02:06;12.50;76.50
80234;DHT22;69712;42.142;24.766;2024-03-02T12:04:32;12.20;76.90
80234;DHT22;69712;42.142;24.766;2024-03-02T12:07:00;12.30;77.60
80234;DHT22;69712;42.142;24.766;2024-03-02T12:09:27;12.30;76.90
80234;DHT22;69712;42.142;24.766;2024-03-02T12:12:09;12.30;76.10
80234;DHT22;69712;42.142;24.766;2024-03-02T12:14:37;12.50;76.20
80234;DHT22;69712;42.142;24.766;2024-03-02T12:17:04;12.80;75.40
80234;DHT22;69712;42.142;24.766;2024-03-02T12:19:35;12.70;76.20
80234;DHT22;69712;42.142;24.766;2024-03-02T12:22:01;12.70;74.70
80234;DHT22;69712;42.142;24.766;2024-03-02T12:24:28;12.90;74.90
80234;DHT22;69712;42.142;24.766;2024-03-02T12:26:54;13.20;74.10
80234;DHT22;69712;42.142;24.766;2024-03-02T12:29:21;12.60;74.10
80234;DHT22;69712;42.142;24.766;2024-03-02T12:31:53;12.50;75.90
80234;DHT22;69712;42.142;24.766;2024-03-02T12:34:19;12.50;77.80
80234;DHT22;69712;42.142;24.766;2024-03-02T12:36:48;12.90;75.90
80234;DHT22;69712;42.142;24.766;2024-03-02T12:39:19;12.80;74.00
80234;DHT22;69712;42.142;24.766;2024-03-02T12:41:46;12.80;74.30
80234;DHT22;69712;42.142;24.766;2024-03-02T12:44:12;12.40;75.50
80234;DHT22;69712;42.142;24.766;2024-03-02T12:46:38;12.40;75.20
80234;DHT22;69712;42.142;24.766;2024-03-02T12:49:10;12.60;75.30
80234;DHT22;69712;42.142;24.766;2024-03-02T12:51:38;12.60;75.20
80234;DHT22;69712;42.142;24.766;2024-03-02T12:54:07;12.80;74.60
80234;DHT22;69712;42.142;24.766;2024-03-02T12:56:33;12.90;74.10
80234;DHT22;69712;42.142;24.766;2024-03-02T12:59:00;12.90;74.40
80234;DHT22;69712;42.142;24.766;2024-03-02T13:01:26;13.00;74.10
80234;DHT22;69712;42.142;24.766;2024-03-02T13:03:53;12.80;74.30
80234;DHT22;69712;42.142;24.766;2024-03-02T13:06:21;13.00;74.40
80234;DHT22;69712;42.142;24.766;2024-03-02T13:08:47;13.10;73.30
80234;DHT22;69712;42.142;24.766;2024-03-02T13:11:13;13.00;73.40
80234;DHT22;69712;42.142;24.766;2024-03-02T13:13:40;12.90;74.20
80234;DHT22;69712;42.142;24.766;2024-03-02T13:16:09;12.60;75.40
80234;DHT22;69712;42.142;24.766;2024-03-02T13:18:36;12.30;76.10
80234;DHT22;69712;42.142;24.766;2024-03-02T13:21:05;12.20;76.70
80234;DHT22;69712;42.142;24.766;2024-03-02T13:23:30;12.30;77.30
80234;DHT22;69712;42.142;24.766;2024-03-02T13:25:57;12.30;76.70
80234;DHT22;69712;42.142;24.766;2024-03-02T13:28:27;12.50;76.20
80234;DHT22;69712;42.142;24.766;2024-03-02T13:30:53;12.30;77.20
80234;DHT22;69712;42.142;24.766;2024-03-02T13:33:19;12.40;76.20
80234;DHT22;69712;42.142;24.766;2024-03-02T13:35:51;12.50;76.00
80234;DHT22;69712;42.142;24.766;2024-03-02T13:38:20;12.40;75.70
80234;DHT22;69712;42.142;24.766;2024-03-02T13:40:48;12.10;76.80
80234;DHT22;69712;42.142;24.766;2024-03-02T13:43:17;12.00;77.10
80234;DHT22;69712;42.142;24.766;2024-03-02T13:45:43;12.20;77.00
80234;DHT22;69712;42.142;24.766;2024-03-02T13:48:09;12.20;77.50
80234;DHT22;69712;42.142;24.766;2024-03-02T13:50:35;12.00;77.50
80234;DHT22;69712;42.142;24.766;2024-03-02T13:53:01;12.00;77.30
80234;DHT22;69712;42.142;24.766;2024-03-02T13:55:28;12.00;77.90
80234;DHT22;69712;42.142;24.766;2024-03-02T13:57:54;12.00;77.10
80234;DHT22;69712;42.142;24.766;2024-03-02T14:00:20;12.10;77.30
80234;DHT22;69712;42.142;24.766;2024-03-02T14:02:46;12.10;77.80
80234;DHT22;69712;42.142;24.766;2024-03-02T14:05:15;12.00;77.10
80234;DHT22;69712;42.142;24.766;2024-03-02T14:07:42;11.90;77.00
80234;DHT22;69712;42.142;24.766;2024-03-02T14:10:08;11.90;77.30
80234;DHT22;69712;42.142;24.766;2024-03-02T14:12:34;12.00;77.40
80234;DHT22;69712;42.142;24.766;2024-03-02T14:15:00;12.10;77.00
80234;DHT22;69712;42.142;24.766;2024-03-02T14:17:28;12.30;76.60
80234;DHT22;69712;42.142;24.766;2024-03-02T14:19:54;12.40;76.20
80234;DHT22;69712;42.142;24.766;2024-03-02T14:22:20;12.40;76.20
80234;DHT22;69712;42.142;24.766;2024-03-02T14:24:46;12.30;76.00
80234;DHT22;69712;42.142;24.766;2024-03-02T14:27:13;12.00;76.30
80234;DHT22;69712;42.142;24.766;2024-03-02T14:29:40;11.90;77.50
80234;DHT22;69712;42.142;24.766;2024-03-02T14:32:06;12.00;77.10
80234;DHT22;69712;42.142;24.766;2024-03-02T14:34:33;11.80;78.60
80234;DHT22;69712;42.142;24.766;2024-03-02T14:36:59;11.70;79.70
80234;DHT22;69712;42.142;24.766;2024-03-02T14:39:26;11.40;81.10
80234;DHT22;69712;42.142;24.766;2024-03-02T14:41:52;11.30;81.60
80234;DHT22;69712;42.142;24.766;2024-03-02T14:44:17;11.20;81.80
80234;DHT22;69712;42.142;24.766;2024-03-02T14:46:46;11.40;81.70
80234;DHT22;69712;42.142;24.766;2024-03-02T14:49:12;11.30;82.00
80234;DHT22;69712;42.142;24.766;2024-03-02T14:51:39;11.30;81.90
80234;DHT22;69712;42.142;24.766;2024-03-02T14:54:05;11.20;82.10
80234;DHT22;69712;42.142;24.766;2024-03-02T14:56:31;11.30;81.10
80234;DHT22;69712;42.142;24.766;2024-03-02T14:58:57;11.10;81.30
80234;DHT22;69712;42.142;24.766;2024-03-02T15:01:22;10.90;83.00
80234;DHT22;69712;42.142;24.766;2024-03-02T15:03:50;10.90;83.80
80234;DHT22;69712;42.142;24.766;2024-03-02T15:06:17;11.00;83.30
80234;DHT22;69712;42.142;24.766;2024-03-02T15:08:43;11.10;82.90
80234;DHT22;69712;42.142;24.766;2024-03-02T15:11:11;11.30;82.00
80234;DHT22;69712;42.142;24.766;2024-03-02T15:13:37;11.40;81.30
80234;DHT22;69712;42.142;24.766;2024-03-02T15:16:04;11.60;80.80
80234;DHT22;69712;42.142;24.766;2024-03-02T15:18:29;11.60;80.60
80234;DHT22;69712;42.142;24.766;2024-03-02T15:20:56;11.70;80.30
80234;DHT22;69712;42.142;24.766;2024-03-02T15:23:22;11.90;78.50
80234;DHT22;69712;42.142;24.766;2024-03-02T15:25:47;12.00;77.80
80234;DHT22;69712;42.142;24.766;2024-03-02T15:28:13;12.20;77.60
80234;DHT22;69712;42.142;24.766;2024-03-02T15:30:39;12.30;77.50
80234;DHT22;69712;42.142;24.766;2024-03-02T15:33:05;12.40;77.40